Welcome to our Virtual Airline
Sign-in:

Flight MFC6101

  • Submitted By: James Smith
  • Departure Airport: Point Baker SPB (KPB)
  • Arrival Airport: Cape Pole SPB (Z71)
  • Aircraft: C185F (N015MM)
  • Flight Time: 00.26.20
  • Date Submitted: 2018/03/24
  • Route: FOLLOW THE TOUR FP
  • Status: Accepted
Flight Details
Gross Revenue:
(3 load / $ 49.00 per unit
$ 147.00
Fuel Cost:
(15.4221 fuel used @ 5.1 / unit)
$ 78.65

Additional Log Information:

View Log

[14:56] ----- Flight Opened -----
[14:56] Cigar Box - 1.1.2.0
[14:56] FS: Prepar3D V4
[14:56] FSUIPC: v5.122
[14:56] Flight Number: MFC6101
[14:56] FS Aircraft: C185F SKYWAGON Misty Taxi
[14:56] FS Model: C185
[14:56] FS Type: Cessna
[14:56] Departure: KPB
[14:56] Arrival: Z71
[14:56] Flight Level: 1500
[14:56] Flight Type: H
[14:56] Passengers: 3
[14:56] FOB: 192 lbs
[14:56] Gate: n/a
[14:56] NOTE: Parking Brake Ignored
[14:56] Crash Detection: Disabled
[14:56] Crash Detection Aircraft: Disabled
[14:56] Engines: 1 Piston
[14:56] NOTE: Boarding has started
[14:56] Landing Gear: Retracted
[14:56] Light Data: Navigation ON
[14:56] Light Data: Beacon ON
[14:56] Light Data: Landing lights ON
[14:56] Light Data: Recognition lights ON
[14:56] Light Data: Wing lights ON
[14:56] Main Door Closed
[14:56] COM1: 122.90
[14:56] COM2: 135.80
[14:56] Transponder: 1200
[14:56] NAV1: 109.30
[14:56] NAV2: 115.90
[14:56] ADF1: 396.0
[14:56] ADF2: 240.0
[14:56] Navigation Mode: GPS
[14:56] Navigation Mode: GPS
[14:58] Engine 1: Started
[14:58] NOTE: Taxi started
[14:58] Flaps: Position 1
[14:59] NOTE: ----- TAKE OFF -----
[14:59] GS: 64 knots
[14:59] TAS: 61 knots
[14:59] IAS: 62 knots
[14:59] VS: 6 fpm
[14:59] FOB: 191 lbs
[14:59] Heading: 327°
[14:59] Pitch: 3°
[14:59] Bank: 0°
[14:59] Aircraft Weight: 2296.91 lbs
[14:59] Nearest Airport: KPB
[14:59] Distance: 0.40 miles
[14:59] Runway: ???
[14:59] Ground Surface: Water
[14:59] Ground Condition: Normal
[14:59] NOTE: Weather Report
[14:59] Wind Heading: 117°
[14:59] Wind Speed: 3 knots
[14:59] OAT: 1° C
[14:59] TAT: 2° C
[14:59] Precipitation: None
[14:59] Dew Point: -2° C
[14:59] Visibility: 39 miles
[14:59] METAR: KPBF 241753Z AUTO 22012G21KT 10SM BKN022 OVC028 21/16 A2987 RMK AO2 SLP112 T02060156 10211 20172 58003 $KPBG 241753Z AUTO 01010G22KT 10SM OVC046 01/M07 A3017 RMK AO2 SLP218 T00061072 10006 21017 58007KPBH 241835Z AUTO 07008KT 10SM CLR 01/M08 A3031 RMK AO2 T00111085KPBI 241753Z 09009KT 10SM SCT041 SCT250 23/12 A3020 RMK AO2 SLP224 T02280117 10239 20133 58009KPBX 241835Z AUTO 04008KT 1/4SM SN OVC005 00/00 A3006 RMK AO2 T00000000
[14:59] NOTE: Climb started
[14:59] Flaps: Position 0
[14:59] GS: 97 knots
[14:59] TAS: 95 knots
[14:59] IAS: 98 knots
[14:59] VS: 1098 fpm
[14:59] View Mode: Virtual Cockpit
[15:00] Turbulence: Light
[15:00] NOTE: TOC reached
[15:00] NOTE: Cruise started
[15:00] GS: 93 knots
[15:00] TAS: 98 knots
[15:00] IAS: 99 knots
[15:00] VS: 198 fpm
[15:00] FOB: 189 lbs
[15:00] Heading: 109°
[15:00] Pitch: 4°
[15:00] Bank: 39°
[15:00] Aircraft Weight: 2294.30 lbs
[15:01] Turbulence: None
[15:03] Turbulence: Light
[15:05] Turbulence: None
[15:13] NOTE: TOD reached
[15:13] NOTE: Descent started
[15:13] GS: 112 knots
[15:13] TAS: 111 knots
[15:13] IAS: 111 knots
[15:13] VS: -997 fpm
[15:13] FOB: 169 lbs
[15:13] Heading: 175°
[15:13] Pitch: 4°
[15:13] Bank: -11°
[15:13] Aircraft Weight: 2274.60 lbs
[15:13] NOTE: On approach
[15:14] Flaps: Position 1
[15:14] GS: 106 knots
[15:14] TAS: 106 knots
[15:14] IAS: 107 knots
[15:14] VS: 51 fpm
[15:14] Flaps: Position 2
[15:14] GS: 91 knots
[15:14] TAS: 92 knots
[15:14] IAS: 93 knots
[15:14] VS: -3 fpm
[15:15] Turbulence: Light
[15:15] Flaps: Position 3
[15:15] GS: 71 knots
[15:15] TAS: 73 knots
[15:15] IAS: 74 knots
[15:15] VS: -125 fpm
[15:15] Flaps: Position 4
[15:15] GS: 69 knots
[15:15] TAS: 71 knots
[15:15] IAS: 72 knots
[15:15] VS: -55 fpm
[15:16] NOTE: ----- LANDED -----
[15:16] Landing Rate: -159.94 fpm
[15:16] GS: 54 knots
[15:16] TAS: 55 knots
[15:16] IAS: 55 knots
[15:16] VS: -156 fpm
[15:16] FOB: 167 lbs
[15:16] Heading: 344°
[15:16] Pitch: 0°
[15:16] Bank: 0°
[15:16] Aircraft Weight: 2272.99 lbs
[15:16] Nearest Airport: TF04
[15:16] Distance: 0.17 miles
[15:16] Runway: ???
[15:16] Ground Surface: Water
[15:16] Ground Condition: Normal
[15:16] NOTE: Weather Report
[15:16] Wind Heading: 43°
[15:16] Wind Speed: 1 knots
[15:16] OAT: 5° C
[15:16] TAT: 6° C
[15:16] Precipitation: None
[15:16] Dew Point: 1° C
[15:16] Visibility: 39 miles
[15:16] METAR: No METAR available for Z71.
[15:16] View Mode: Virtual Cockpit
[15:16] NOTE: Taxi started
[15:16] Flaps: Position 2
[15:16] Flaps: Position 1
[15:17] Engine 1: Stopped
[15:17] Engine 1: Started
[15:18] Flaps: Position 0
[15:18] GS: 81 knots
[15:18] TAS: 82 knots
[15:18] IAS: 83 knots
[15:18] VS: 502 fpm
[15:18] View Mode: Virtual Cockpit
[15:20] Recovery: Flight Saved
[15:21] Flaps: Position 1
[15:21] GS: 108 knots
[15:21] TAS: 110 knots
[15:21] IAS: 110 knots
[15:21] VS: -848 fpm
[15:21] Flaps: Position 2
[15:21] GS: 104 knots
[15:21] TAS: 106 knots
[15:21] IAS: 106 knots
[15:21] VS: -434 fpm
[15:22] Flaps: Position 3
[15:22] GS: 64 knots
[15:22] TAS: 65 knots
[15:22] IAS: 66 knots
[15:22] VS: -687 fpm
[15:22] Flaps: Position 4
[15:22] GS: 62 knots
[15:22] TAS: 63 knots
[15:22] IAS: 64 knots
[15:22] VS: -587 fpm
[15:23] Turbulence: Light
[15:23] NOTE: ----- LANDED -----
[15:23] Landing Rate: -133.03 fpm
[15:23] GS: 46 knots
[15:23] TAS: 47 knots
[15:23] IAS: 48 knots
[15:23] VS: -129 fpm
[15:23] FOB: 158 lbs
[15:23] Heading: 328°
[15:23] Pitch: 4°
[15:23] Bank: 0°
[15:23] Aircraft Weight: 2263.95 lbs
[15:23] Nearest Airport: Z71
[15:23] Distance: 0.08 miles
[15:23] Runway: ???
[15:23] Ground Surface: Water
[15:23] Ground Condition: Normal
[15:23] NOTE: Weather Report
[15:23] Wind Heading: 45°
[15:23] Wind Speed: 1 knots
[15:23] OAT: 5° C
[15:23] TAT: 6° C
[15:23] Precipitation: None
[15:23] Dew Point: 1° C
[15:23] Visibility: 39 miles
[15:23] METAR: No METAR available for Z71.
[15:23] View Mode: Virtual Cockpit
[15:24] Flaps: Position 3
[15:24] Flaps: Position 2
[15:24] Flaps: Position 1
[15:24] Flaps: Position 0
[15:25] Engine 1: Stopped
[15:25] Gate: n/a
[15:25] NOTE: Flight Completed
[15:25] FS Aircraft: C185F SKYWAGON Misty Taxi
[15:25] FS Model: C185
[15:25] FS Type: Cessna
[15:25] FOB: 158 lbs
[15:25] Fuel Used: 34 lbs
[15:25] Flight Time: 00:26:20
[15:25] Flight Time (Dawn): 00:00:00
[15:25] Flight Time (Day): 00:26:20
[15:25] Flight Time (Dusk): 00:00:00
[15:25] Flight Time (Night): 00:00:00
[15:25] Total Landings: 2
[15:25] MaxSim Rate: 0x
[15:25] Cigar Box - 1.1.2.0
[15:25] ----- Flight Closed -----

Route Map